Time;durP1;ratioP1;P1;durP2;ratioP2;P2;SDS_P1;SDS_P2;PMS_P1;PMS_P2;Temp;Humidity;BMP_temperature;BMP_pressure;BME280_temperature;BME280_humidity;BME280_pressure;Samples;Min_cycle;Max_cycle;Signal;HPM_P1;HPM_P2
2022/04/10 00:00:59;;;;;;;14.90;11.98;;;;;;;1.36;84.66;99590.16;4956596;28;20287;-64
2022/04/10 00:03:24;;;;;;;;;;;;;;;1.37;84.05;99591.81;4956487;28;20043;-62
2022/04/10 00:05:52;;;;;;;13.73;9.07;;;;;;;1.30;84.46;99595.09;4973130;28;19993;-64
2022/04/10 00:08:19;;;;;;;10.67;9.27;;;;;;;1.28;84.64;99603.13;4973211;28;20479;-63
2022/04/10 00:10:44;;;;;;;13.80;10.37;;;;;;;1.29;84.79;99599.53;4973311;28;20269;-63
2022/04/10 00:13:13;;;;;;;12.77;9.87;;;;;;;1.29;84.56;99604.78;4973008;28;20283;-61
2022/04/10 00:15:39;;;;;;;17.97;11.27;;;;;;;1.24;84.31;99604.34;4973491;28;20320;-64
2022/04/10 00:18:07;;;;;;;16.63;12.20;;;;;;;1.27;84.40;99611.94;4959023;28;20034;-66
2022/04/10 00:20:33;;;;;;;16.75;12.93;;;;;;;1.31;84.20;99613.34;4976837;28;20145;-63
2022/04/10 00:22:58;;;;;;;14.67;13.00;;;;;;;1.37;83.73;99604.94;4976918;28;20062;-64
2022/04/10 00:25:24;;;;;;;17.13;13.13;;;;;;;1.45;83.54;99610.38;4976785;28;20375;-62
2022/04/10 00:27:49;;;;;;;16.30;12.80;;;;;;;1.54;83.10;99625.31;4959394;28;20035;-65
2022/04/10 00:30:16;;;;;;;16.17;12.67;;;;;;;1.44;82.97;99597.34;4976814;28;20038;-61
2022/04/10 00:32:43;;;;;;;19.33;14.63;;;;;;;1.54;82.98;99616.59;4977258;28;20042;-62
2022/04/10 00:35:10;;;;;;;15.93;12.70;;;;;;;1.65;83.19;99610.41;4976515;28;20266;-62
2022/04/10 00:37:36;;;;;;;16.07;12.57;;;;;;;1.63;82.97;99607.94;4976710;28;20274;-62
2022/04/10 00:40:03;;;;;;;16.37;12.83;;;;;;;1.59;82.86;99605.72;4976517;28;20639;-61
2022/04/10 00:42:49;;;;;;;16.30;11.83;;;;;;;1.52;82.61;99606.25;4976432;28;20700;-64
2022/04/10 00:45:16;;;;;;;14.60;11.37;;;;;;;1.46;83.53;99617.28;4976344;28;20349;-63
2022/04/10 00:47:44;;;;;;;15.93;12.13;;;;;;;1.42;82.98;99615.03;4977414;28;20317;-62
2022/04/10 00:50:11;;;;;;;16.60;12.32;;;;;;;1.32;83.46;99612.38;4976413;28;20263;-61
2022/04/10 00:52:37;;;;;;;16.53;12.50;;;;;;;1.31;83.99;99615.97;4976407;28;20046;-61
2022/04/10 00:55:04;;;;;;;17.13;12.63;;;;;;;1.38;84.05;99613.63;4976112;28;20634;-61
2022/04/10 00:57:30;;;;;;;16.77;13.57;;;;;;;1.44;83.11;99613.94;4976020;28;20282;-63
2022/04/10 01:00:01;;;;;;;19.70;13.10;;;;;;;1.35;83.80;99609.47;4974941;28;20673;-65
2022/04/10 01:02:57;;;;;;;17.93;13.87;;;;;;;1.35;83.90;99609.47;4938457;28;20050;-62
2022/04/10 01:05:23;;;;;;;21.47;15.13;;;;;;;1.46;83.89;99617.28;4958588;28;20266;-63
2022/04/10 01:07:48;;;;;;;21.17;15.87;;;;;;;1.51;83.84;99620.34;4975940;28;20089;-64
2022/04/10 01:10:14;;;;;;;17.03;13.43;;;;;;;1.60;82.87;99623.13;4975805;28;20041;-62
2022/04/10 01:12:40;;;;;;;16.43;12.70;;;;;;;1.65;82.85;99615.66;4975913;28;20493;-62
2022/04/10 01:15:06;;;;;;;17.43;12.70;;;;;;;1.72;82.65;99616.78;4975962;28;20524;-64
2022/04/10 01:17:32;;;;;;;15.10;12.20;;;;;;;1.78;82.45;99617.09;4977515;28;20258;-62
2022/04/10 01:19:59;;;;;;;15.53;12.50;;;;;;;1.74;82.18;99614.88;4976022;28;20027;-62
2022/04/10 01:22:32;;;;;;;17.10;13.00;;;;;;;1.41;82.07;99574.84;4975768;28;20278;-63
2022/04/10 01:24:59;;;;;;;13.70;11.67;;;;;;;1.59;82.83;99611.78;4975867;28;20302;-62
2022/04/10 01:27:25;;;;;;;14.57;12.57;;;;;;;1.50;83.04;99610.81;4976627;28;20298;-63
2022/04/10 01:29:50;;;;;;;13.73;10.70;;;;;;;1.49;83.18;99622.25;4976440;28;20357;-61
2022/04/10 01:32:16;;;;;;;11.27;9.77;;;;;;;1.35;83.43;99614.72;4976322;28;20126;-62
2022/04/10 01:34:42;;;;;;;13.63;9.83;;;;;;;1.21;83.55;99623.78;4976130;28;20450;-62
2022/04/10 01:37:08;;;;;;;11.17;9.20;;;;;;;1.12;84.14;99618.47;4975761;28;20035;-61
2022/04/10 01:39:34;;;;;;;9.83;8.83;;;;;;;1.11;84.65;99625.50;4975444;28;20467;-61
2022/04/10 01:42:47;;;;;;;12.37;9.20;;;;;;;0.90;84.46;99590.66;4975363;28;20365;-65
2022/04/10 01:45:12;;;;;;;15.80;11.10;;;;;;;1.02;84.63;99622.84;4957867;28;20089;-63
2022/04/10 01:47:38;;;;;;;13.53;10.57;;;;;;;0.93;84.91;99630.53;4976569;28;20674;-61
2022/04/10 01:50:04;;;;;;;17.23;12.53;;;;;;;0.84;84.95;99617.34;4974907;28;20075;-62
2022/04/10 01:52:29;;;;;;;19.20;13.50;;;;;;;0.81;85.33;99623.69;4975374;28;20333;-63
2022/04/10 01:54:56;;;;;;;19.27;14.13;;;;;;;0.75;85.60;99621.59;4975328;28;20337;-62
2022/04/10 01:57:21;;;;;;;20.53;14.03;;;;;;;0.73;85.86;99620.88;4957850;28;20035;-62
2022/04/10 01:59:47;;;;;;;19.23;14.57;;;;;;;0.84;86.13;99623.41;4975048;28;20623;-63
2022/04/10 02:02:13;;;;;;;19.67;15.40;;;;;;;1.03;85.43;99614.03;4977064;28;20141;-63
2022/04/10 02:04:38;;;;;;;20.97;14.87;;;;;;;1.20;85.11;99632.63;4975078;28;20349;-62
2022/04/10 02:07:04;;;;;;;20.37;14.87;;;;;;;1.30;85.17;99637.06;4974949;28;20034;-63
2022/04/10 02:09:30;;;;;;;16.23;12.97;;;;;;;1.38;84.34;99630.19;4975320;28;20030;-63
2022/04/10 02:11:55;;;;;;;17.93;13.40;;;;;;;1.38;83.86;99627.59;4974805;28;20573;-61
2022/04/10 02:14:21;;;;;;;16.50;12.10;;;;;;;1.42;83.42;99630.75;4974691;28;20046;-62
2022/04/10 02:16:47;;;;;;;15.47;11.77;;;;;;;1.45;83.09;99631.38;4974847;28;20054;-64
2022/04/10 02:19:13;;;;;;;13.07;10.60;;;;;;;1.49;83.14;99622.25;4975163;28;20270;-61
2022/04/10 02:21:38;;;;;;;12.57;11.23;;;;;;;1.51;82.74;99630.81;4974781;28;20545;-61
2022/04/10 02:24:05;;;;;;;11.70;10.47;;;;;;;1.54;82.98;99625.31;4974611;28;20042;-60
2022/04/10 02:26:30;;;;;;;11.00;9.80;;;;;;;1.58;82.55;99625.03;4974598;28;20402;-62
2022/04/10 02:28:56;;;;;;;13.77;8.77;;;;;;;1.53;82.35;99621.03;4974585;28;20270;-63
2022/04/10 02:31:21;;;;;;;8.80;7.90;;;;;;;1.55;82.63;99623.50;4974277;28;20049;-61
2022/04/10 02:33:47;;;;;;;10.57;8.60;;;;;;;1.45;82.35;99589.38;4975684;28;20469;-62
2022/04/10 02:36:16;;;;;;;12.40;9.37;;;;;;;1.60;82.41;99623.13;4974368;28;20039;-63
2022/04/10 02:38:42;;;;;;;11.00;9.30;;;;;;;1.41;82.63;99605.50;4974252;28;20589;-62
2022/04/10 02:41:07;;;;;;;10.30;7.47;;;;;;;1.42;83.23;99609.78;4973597;28;20346;-62
2022/04/10 02:43:33;;;;;;;11.47;7.50;;;;;;;1.47;82.90;99621.56;4974260;28;20414;-62
2022/04/10 02:45:58;;;;;;;10.63;6.47;;;;;;;1.56;82.59;99606.81;4974216;28;20053;-62
2022/04/10 02:48:24;;;;;;;12.57;7.20;;;;;;;1.65;82.07;99610.41;4975283;28;20081;-64
2022/04/10 02:50:49;;;;;;;8.83;6.90;;;;;;;1.62;82.22;99608.06;4974303;28;20037;-62
2022/04/10 02:53:15;;;;;;;9.00;7.03;;;;;;;1.68;81.99;99615.41;4974155;28;20550;-62
2022/04/10 02:55:40;;;;;;;9.03;7.37;;;;;;;1.72;81.99;99612.34;4974279;28;20058;-62
2022/04/10 02:58:24;;;;;;;10.90;7.10;;;;;;;1.69;81.40;99614.44;4974534;28;20129;-62
2022/04/10 03:01:09;;;;;;;8.97;7.70;;;;;;;1.72;82.29;99608.91;4974058;28;20289;-62
2022/04/10 03:03:53;;;;;;;9.50;7.37;;;;;;;1.81;81.73;99608.13;4976111;28;20272;-62
2022/04/10 03:06:37;;;;;;;8.60;6.20;;;;;;;1.84;81.85;99613.09;4975993;28;20396;-63
2022/04/10 03:09:21;;;;;;;9.20;6.77;;;;;;;1.79;81.15;99620.56;4973788;28;20293;-60
2022/04/10 03:12:05;;;;;;;9.37;7.27;;;;;;;1.76;81.00;99613.78;4976347;28;20312;-62
2022/04/10 03:14:49;;;;;;;7.90;6.53;;;;;;;1.71;80.77;99623.00;4973799;28;20266;-62
2022/04/10 03:17:35;;;;;;;8.93;6.97;;;;;;;1.73;81.33;99628.94;4974288;28;20277;-63
2022/04/10 03:20:19;;;;;;;8.27;6.60;;;;;;;1.70;80.63;99642.34;4975244;28;20297;-62
2022/04/10 03:23:08;;;;;;;9.27;6.53;;;;;;;1.72;81.10;99638.59;4974465;28;20262;-60
2022/04/10 03:25:52;;;;;;;6.22;5.63;;;;;;;1.75;80.61;99643.63;4976764;28;20824;-63
2022/04/10 03:28:36;;;;;;;6.70;5.50;;;;;;;1.74;80.26;99641.13;4974336;28;20053;-62
2022/04/10 03:31:23;;;;;;;7.20;5.60;;;;;;;1.73;80.42;99657.81;4973794;28;20788;-62
2022/04/10 03:34:08;;;;;;;9.10;6.03;;;;;;;1.69;80.89;99651.16;4976141;28;20265;-61
2022/04/10 03:36:52;;;;;;;6.53;4.80;;;;;;;1.61;80.14;99653.63;4974542;28;20376;-62
2022/04/10 03:39:36;;;;;;;5.90;5.30;;;;;;;1.50;79.55;99649.31;4974666;28;20269;-60
2022/04/10 03:42:19;;;;;;;5.73;4.97;;;;;;;1.48;79.86;99654.72;4974193;28;20282;-61
2022/04/10 03:45:05;;;;;;;7.17;5.37;;;;;;;1.50;79.76;99650.16;4973487;28;20324;-62
2022/04/10 03:47:49;;;;;;;7.47;5.40;;;;;;;1.52;79.86;99652.66;4974483;28;20365;-62
2022/04/10 03:50:34;;;;;;;7.00;4.60;;;;;;;1.53;79.67;99660.38;4975874;28;20277;-61
2022/04/10 03:53:18;;;;;;;5.83;4.67;;;;;;;1.57;79.37;99665.38;4977653;28;20289;-62
2022/04/10 03:56:02;;;;;;;4.83;4.17;;;;;;;1.60;78.79;99658.06;4978091;28;20278;-61
2022/04/10 03:58:47;;;;;;;8.20;4.20;;;;;;;1.55;78.82;99668.13;4962354;28;20266;-62
2022/04/10 04:01:34;;;;;;;5.63;3.87;;;;;;;1.49;79.18;99659.00;4935607;28;20289;-63
2022/04/10 04:04:20;;;;;;;4.87;4.10;;;;;;;1.46;79.55;99667.13;4978454;28;20479;-62
2022/04/10 04:07:05;;;;;;;5.27;3.80;;;;;;;1.50;78.95;99671.16;4975851;28;20317;-60
2022/04/10 04:09:49;;;;;;;4.60;3.93;;;;;;;1.50;78.94;99665.91;4972835;28;20265;-63
2022/04/10 04:12:34;;;;;;;4.77;3.97;;;;;;;1.45;79.02;99652.34;4973119;28;20265;-61
2022/04/10 04:15:18;;;;;;;5.83;4.10;;;;;;;1.62;78.63;99663.16;4973459;28;20341;-62
2022/04/10 04:18:04;;;;;;;3.60;3.30;;;;;;;1.71;78.06;99662.38;4973681;28;20773;-61
2022/04/10 04:20:48;;;;;;;8.40;3.97;;;;;;;1.78;77.44;99666.97;4973673;28;20321;-64
2022/04/10 04:23:32;;;;;;;4.63;3.37;;;;;;;1.87;76.74;99673.22;4973046;28;20357;-62
2022/04/10 04:26:16;;;;;;;4.67;3.50;;;;;;;1.89;76.71;99655.53;4973062;28;20736;-61
2022/04/10 04:29:00;;;;;;;5.30;4.13;;;;;;;1.88;76.90;99671.41;4973192;28;20362;-62
2022/04/10 04:31:44;;;;;;;6.13;3.57;;;;;;;1.92;76.94;99675.44;4972925;28;20365;-65
2022/04/10 04:34:28;;;;;;;7.93;3.90;;;;;;;1.92;76.67;99668.38;4973839;28;20270;-62
2022/04/10 04:37:12;;;;;;;5.00;3.43;;;;;;;2.07;76.47;99674.09;4972943;28;20672;-62
2022/04/10 04:39:56;;;;;;;8.07;3.07;;;;;;;2.21;76.17;99670.25;4972541;28;20330;-61
2022/04/10 04:42:40;;;;;;;3.90;3.50;;;;;;;2.16;75.98;99660.97;4972615;28;20337;-61
2022/04/10 04:45:25;;;;;;;5.20;4.50;;;;;;;2.04;75.86;99664.69;4972776;28;20849;-61
2022/04/10 04:48:10;;;;;;;5.07;3.63;;;;;;;2.22;76.24;99677.16;4972712;28;20317;-62
2022/04/10 04:50:55;;;;;;;8.20;3.87;;;;;;;2.26;76.04;99681.16;4973686;28;20273;-62
2022/04/10 04:54:21;;;;;;;8.87;4.40;;;;;;;2.41;75.68;99677.19;4972013;28;20413;-65
2022/04/10 04:57:05;;;;;;;6.37;3.97;;;;;;;2.67;75.07;99685.38;4963423;28;20328;-63
2022/04/10 04:59:57;;;;;;;7.83;4.60;;;;;;;2.74;74.83;99679.41;4972020;28;20281;-63
2022/04/10 05:02:42;;;;;;;4.77;4.00;;;;;;;2.74;74.18;99674.16;4957672;28;20293;-63
2022/04/10 05:05:26;;;;;;;7.63;4.40;;;;;;;2.82;74.28;99691.03;4977061;28;20721;-62
2022/04/10 05:08:09;;;;;;;4.13;3.47;;;;;;;2.86;74.38;99687.16;4976193;28;20412;-61
2022/04/10 05:10:53;;;;;;;7.33;4.60;;;;;;;2.87;74.06;99686.19;4976825;28;20605;-61
2022/04/10 05:13:37;;;;;;;4.17;3.60;;;;;;;2.78;74.23;99680.78;4978782;28;20297;-63
2022/04/10 05:16:24;;;;;;;13.37;4.57;;;;;;;2.99;74.41;99685.06;4975704;28;20286;-61
2022/04/10 05:19:11;;;;;;;6.83;4.53;;;;;;;2.98;73.36;99692.13;4977521;28;20276;-64
2022/04/10 05:21:55;;;;;;;5.93;3.70;;;;;;;2.96;73.49;99698.50;4977056;28;20265;-64
2022/04/10 05:24:39;;;;;;;7.60;4.60;;;;;;;2.96;73.51;99696.72;4976272;28;20261;-64
2022/04/10 05:27:23;;;;;;;7.53;3.90;;;;;;;2.88;73.45;99701.00;4976254;28;20375;-64
2022/04/10 05:30:07;;;;;;;5.83;3.77;;;;;;;2.89;73.63;99702.66;4975937;28;20269;-63
2022/04/10 05:32:52;;;;;;;4.53;3.57;;;;;;;2.84;73.28;99696.97;4991011;28;20300;-66
2022/04/10 05:35:36;;;;;;;6.13;3.77;;;;;;;2.87;73.58;99700.16;4997985;28;20289;-65
2022/04/10 05:38:22;;;;;;;7.27;3.80;;;;;;;2.87;72.99;99702.78;4996206;28;20260;-67
2022/04/10 05:41:05;;;;;;;6.03;3.90;;;;;;;2.84;73.83;99707.50;4996492;28;20288;-69
2022/04/10 05:43:50;;;;;;;4.30;3.07;;;;;;;2.87;73.39;99704.59;4998079;28;20292;-65
2022/04/10 05:46:38;;;;;;;6.10;3.40;;;;;;;3.01;72.99;99676.06;4999963;28;20296;-67
2022/04/10 05:49:22;;;;;;;6.28;3.95;;;;;;;3.32;72.00;99708.28;4981317;28;20269;-67
2022/04/10 05:52:07;;;;;;;6.20;3.80;;;;;;;3.38;71.59;99706.88;4997169;28;20069;-68
2022/04/10 05:54:51;;;;;;;5.70;3.90;;;;;;;3.46;71.01;99701.72;4981519;28;20285;-67
2022/04/10 05:57:37;;;;;;;9.13;5.03;;;;;;;3.60;70.19;99695.19;4996947;28;20280;-66
2022/04/10 06:00:25;;;;;;;5.10;2.73;;;;;;;3.43;69.78;99702.84;4997429;28;20340;-66
2022/04/10 06:03:19;;;;;;;3.27;2.80;;;;;;;3.33;70.49;99699.41;4971257;28;20636;-68
2022/04/10 06:06:03;;;;;;;8.30;3.53;;;;;;;3.48;69.63;99696.34;4997437;28;20408;-64
2022/04/10 06:08:47;;;;;;;5.67;3.77;;;;;;;3.61;69.72;99707.38;4977417;28;20300;-65
2022/04/10 06:11:31;;;;;;;6.40;3.20;;;;;;;3.61;69.52;99707.38;4976797;28;20313;-65
2022/04/10 06:14:15;;;;;;;9.50;3.40;;;;;;;3.56;69.79;99714.88;4975033;28;20269;-64
2022/04/10 06:16:40;;;;;;;9.30;3.00;;;;;;;3.30;70.33;99717.28;4974636;28;20353;-63
2022/04/10 06:19:07;;;;;;;6.67;3.53;;;;;;;3.25;71.05;99730.88;4975261;28;20050;-70
2022/04/10 06:21:32;;;;;;;5.77;3.43;;;;;;;3.23;71.55;99716.19;4975973;28;20266;-70
2022/04/10 06:23:58;;;;;;;10.23;3.40;;;;;;;3.25;70.84;99720.34;4957380;28;20031;-65
2022/04/10 06:26:23;;;;;;;7.97;3.67;;;;;;;3.27;71.41;99723.66;4974217;28;20043;-71
2022/04/10 06:28:49;;;;;;;9.63;6.23;;;;;;;3.42;70.97;99730.13;4956822;28;20494;-69
2022/04/10 06:31:14;;;;;;;4.80;3.23;;;;;;;3.33;70.65;99707.31;4974442;28;20031;-68
2022/04/10 06:33:40;;;;;;;4.93;3.07;;;;;;;3.45;70.22;99730.81;4974730;28;20125;-65
2022/04/10 06:36:05;;;;;;;22.63;4.00;;;;;;;3.53;70.20;99739.69;4958219;28;20516;-66
2022/04/10 06:38:31;;;;;;;7.73;3.87;;;;;;;3.56;69.29;99728.03;4977316;28;20034;-72
2022/04/10 06:40:57;;;;;;;9.23;4.60;;;;;;;3.63;70.16;99723.84;4959233;28;20031;-69
2022/04/10 06:43:28;;;;;;;7.60;3.07;;;;;;;3.57;68.83;99734.97;4976342;28;20412;-69
2022/04/10 06:45:56;;;;;;;7.67;2.87;;;;;;;3.48;69.01;99741.09;4975869;28;20034;-71
2022/04/10 06:48:22;;;;;;;6.05;2.70;;;;;;;3.52;69.39;99740.66;4976037;28;20294;-69
2022/04/10 06:50:48;;;;;;;11.30;3.67;;;;;;;3.80;68.91;99731.00;4976815;28;20035;-67
2022/04/10 06:53:13;;;;;;;10.00;3.30;;;;;;;3.93;68.72;99728.03;4983390;28;20045;-60
2022/04/10 06:55:40;;;;;;;12.00;4.67;;;;;;;3.93;68.60;99739.41;4961024;28;20038;-64
2022/04/10 06:58:05;;;;;;;13.17;4.13;;;;;;;3.94;69.00;99741.06;4976948;28;20030;-65
2022/04/10 07:00:36;;;;;;;5.57;2.93;;;;;;;3.93;68.25;99746.47;4976959;28;20400;-68
2022/04/10 07:03:02;;;;;;;6.77;3.30;;;;;;;3.82;68.82;99746.66;4995314;28;20369;-69
2022/04/10 07:05:28;;;;;;;7.00;3.83;;;;;;;3.79;69.02;99760.97;4998119;28;20780;-65
2022/04/10 07:07:54;;;;;;;8.67;3.27;;;;;;;3.78;68.82;99756.66;4978353;28;20296;-68
2022/04/10 07:10:21;;;;;;;10.23;3.83;;;;;;;3.88;68.97;99770.63;4994330;28;20441;-67
2022/04/10 07:12:50;;;;;;;9.83;4.53;;;;;;;3.97;69.30;99764.47;4994692;28;20277;-68
2022/04/10 07:15:15;;;;;;;;;;;;;;;4.01;68.88;99757.94;4968187;28;20285;-66
2022/04/10 07:17:41;;;;;;;9.63;3.80;;;;;;;4.04;68.37;99760.28;4973484;28;19922;-66
2022/04/10 07:20:09;;;;;;;10.93;3.43;;;;;;;4.03;68.73;99758.63;4973792;28;20045;-65
2022/04/10 07:25:41;;;;;;;6.13;3.17;;;;;;;4.08;67.40;99767.94;4973333;28;20286;-65
2022/04/10 07:28:42;;;;;;;8.97;3.60;;;;;;;4.02;67.08;99764.88;4894170;29;20351;-65
2022/04/10 07:31:11;;;;;;;5.45;2.85;;;;;;;4.20;67.72;99778.13;4905666;28;20313;-66
2022/04/10 07:33:37;;;;;;;5.00;2.60;;;;;;;4.07;66.43;99766.25;4972760;28;20056;-62
2022/04/10 07:36:03;;;;;;;11.07;3.67;;;;;;;3.98;67.13;99776.69;4974719;28;20054;-62
2022/04/10 07:38:28;;;;;;;7.20;3.17;;;;;;;3.82;68.25;99784.38;4974199;28;20259;-64
2022/04/10 07:40:57;;;;;;;8.23;3.23;;;;;;;3.69;68.15;99786.47;4976490;28;20042;-65
2022/04/10 07:43:23;;;;;;;8.32;3.72;;;;;;;3.52;69.05;99782.78;4946912;28;20046;-64
2022/04/10 07:48:32;;;;;;;6.87;2.90;;;;;;;3.89;68.13;99790.72;4992581;28;20297;-63
2022/04/10 07:50:58;;;;;;;7.83;3.20;;;;;;;4.00;67.58;99800.25;4993609;28;20330;-68
2022/04/10 07:53:24;;;;;;;5.07;2.57;;;;;;;4.06;67.84;99804.13;4993034;28;20504;-65
2022/04/10 07:55:49;;;;;;;6.63;2.73;;;;;;;4.02;68.80;99801.75;4992437;28;20452;-64
2022/04/10 07:58:17;;;;;;;7.23;2.83;;;;;;;3.87;67.60;99802.38;4992244;28;20109;-62
2022/04/10 08:00:43;;;;;;;7.83;3.13;;;;;;;3.77;67.73;99799.78;4991914;28;20498;-64
2022/04/10 08:03:08;;;;;;;6.70;3.60;;;;;;;3.70;67.99;99793.41;4992124;28;20296;-64
2022/04/10 08:05:34;;;;;;;11.03;2.57;;;;;;;3.71;68.09;99795.88;4992639;28;20113;-63
2022/04/10 08:08:00;;;;;;;5.13;1.87;;;;;;;3.63;68.00;99779.16;4975427;28;20482;-63
2022/04/10 08:10:25;;;;;;;7.20;2.43;;;;;;;3.81;68.11;99808.22;4992032;28;20397;-64
2022/04/10 08:12:51;;;;;;;11.13;3.70;;;;;;;3.86;68.12;99805.97;4992340;28;20397;-66
2022/04/10 08:15:17;;;;;;;10.43;3.50;;;;;;;3.93;67.13;99807.06;4975169;28;20145;-63
2022/04/10 08:17:43;;;;;;;7.30;2.30;;;;;;;3.93;67.03;99814.97;4992239;28;20808;-63
2022/04/10 08:20:09;;;;;;;9.10;3.00;;;;;;;3.98;66.88;99824.09;4992137;28;20421;-62
2022/04/10 08:22:36;;;;;;;5.63;2.97;;;;;;;3.95;66.86;99813.84;4992998;28;20282;-65
2022/04/10 08:25:06;;;;;;;8.33;2.80;;;;;;;3.99;66.79;99820.50;4992565;28;20042;-63
2022/04/10 08:27:33;;;;;;;4.67;2.60;;;;;;;3.90;66.86;99808.19;4974538;28;20307;-65
2022/04/10 08:29:59;;;;;;;10.87;3.07;;;;;;;4.13;66.57;99821.00;4992028;28;20277;-64
2022/04/10 08:32:25;;;;;;;8.57;3.00;;;;;;;4.07;66.43;99784.72;4992671;28;20281;-63
2022/04/10 08:34:50;;;;;;;6.73;2.70;;;;;;;4.56;65.27;99829.13;4998923;28;20058;-62
2022/04/10 08:37:16;;;;;;;5.20;2.30;;;;;;;4.86;64.49;99830.63;4995412;28;20031;-63
2022/04/10 08:39:42;;;;;;;5.77;2.50;;;;;;;5.14;64.22;99839.31;4995451;28;20030;-63
2022/04/10 08:42:10;;;;;;;5.07;2.03;;;;;;;5.37;62.87;99834.44;4996000;28;20037;-63
2022/04/10 08:44:36;;;;;;;9.48;2.38;;;;;;;5.58;62.64;99834.13;4996045;28;20402;-64
2022/04/10 08:47:02;;;;;;;9.83;2.80;;;;;;;5.52;61.90;99826.81;4995799;28;20044;-65
2022/04/10 08:49:29;;;;;;;7.17;2.53;;;;;;;5.53;62.00;99850.44;4996031;28;20088;-66
2022/04/10 08:51:57;;;;;;;6.63;2.50;;;;;;;5.15;62.66;99835.72;4996798;28;20761;-64
2022/04/10 08:54:23;;;;;;;2.87;2.37;;;;;;;5.17;63.48;99843.47;4996799;28;20316;-64
2022/04/10 08:56:52;;;;;;;6.10;2.40;;;;;;;5.22;62.72;99852.63;4997444;28;20292;-63
2022/04/10 08:59:18;;;;;;;5.15;2.25;;;;;;;5.09;62.54;99852.16;4997735;28;20275;-63
2022/04/10 09:01:45;;;;;;;8.03;2.17;;;;;;;4.91;62.68;99811.72;4995773;28;20144;-65
2022/04/10 09:04:10;;;;;;;4.33;3.03;;;;;;;5.17;63.25;99859.31;4995560;28;20289;-64
2022/04/10 09:06:56;;;;;;;8.33;1.90;;;;;;;5.03;63.21;99854.56;4978553;28;20265;-65
2022/04/10 09:09:21;;;;;;;8.90;2.43;;;;;;;5.08;62.53;99870.78;4995600;28;20030;-68
2022/04/10 09:11:47;;;;;;;7.10;2.93;;;;;;;5.01;63.28;99860.00;4996007;28;20281;-66
2022/04/10 09:14:20;;;;;;;4.00;1.70;;;;;;;4.84;63.19;99860.78;4995444;28;20049;-62
2022/04/10 09:17:08;;;;;;;8.17;2.80;;;;;;;4.87;63.50;99876.31;4995480;28;20430;-64
2022/04/10 09:19:36;;;;;;;6.53;2.73;;;;;;;4.85;63.88;99880.91;4995339;28;20269;-66
2022/04/10 09:22:30;;;;;;;9.70;3.17;;;;;;;4.78;64.18;99874.56;4996841;28;20332;-65
2022/04/10 09:25:04;;;;;;;4.73;2.30;;;;;;;4.84;63.69;99893.25;4978125;28;20325;-65
2022/04/10 09:27:34;;;;;;;5.13;2.53;;;;;;;4.89;63.49;99882.25;4995159;28;20309;-67
2022/04/10 09:30:00;;;;;;;3.63;2.30;;;;;;;4.90;63.19;99882.13;4995140;28;20277;-67
2022/04/10 09:32:40;;;;;;;6.77;3.17;;;;;;;5.05;63.21;99893.00;4995155;28;20673;-63
2022/04/10 09:35:07;;;;;;;11.60;2.83;;;;;;;5.15;63.46;99896.41;4994903;28;20264;-66
2022/04/10 09:37:41;;;;;;;2.83;2.40;;;;;;;5.23;63.09;99898.34;4996331;28;20388;-63
2022/04/10 09:40:35;;;;;;;10.53;2.53;;;;;;;5.27;62.89;99897.88;4994939;28;20729;-63
2022/04/10 09:43:10;;;;;;;13.77;3.83;;;;;;;5.32;63.33;99904.50;4975262;28;20749;-64
2022/04/10 09:45:43;;;;;;;5.57;2.57;;;;;;;5.21;62.01;99893.19;4995491;28;20769;-66
2022/04/10 09:48:20;;;;;;;8.63;2.70;;;;;;;5.27;62.72;99900.50;4995018;28;20301;-66
2022/04/10 09:50:47;;;;;;;11.77;3.40;;;;;;;5.41;62.84;99898.31;4998172;28;20283;-68
2022/04/10 09:53:13;;;;;;;8.17;2.90;;;;;;;5.78;62.75;99906.94;4995769;28;20388;-64
2022/04/10 09:55:40;;;;;;;9.27;2.73;;;;;;;5.93;61.69;99903.75;4994561;28;20800;-64
2022/04/10 09:58:10;;;;;;;9.80;3.60;;;;;;;6.15;61.49;99897.97;4994557;28;20050;-65
2022/04/10 10:00:44;;;;;;;9.23;2.20;;;;;;;6.33;60.59;99906.69;4994206;28;20297;-64
2022/04/10 10:03:10;;;;;;;14.13;3.73;;;;;;;6.24;61.02;99918.19;4994619;28;20760;-66
2022/04/10 10:05:37;;;;;;;10.73;2.77;;;;;;;6.22;60.55;99918.34;4976871;28;20270;-63
2022/04/10 10:08:05;;;;;;;5.70;2.40;;;;;;;6.04;59.91;99906.16;4977469;28;20493;-65
2022/04/10 10:10:33;;;;;;;4.47;2.20;;;;;;;6.03;60.41;99917.72;4994421;28;20089;-64
2022/04/10 10:13:06;;;;;;;10.13;2.47;;;;;;;5.77;60.47;99889.41;4976569;28;20038;-66
2022/04/10 10:15:35;;;;;;;7.43;2.80;;;;;;;6.02;60.66;99921.34;4994262;28;20360;-64
2022/04/10 10:18:06;;;;;;;9.70;3.17;;;;;;;6.08;60.49;99931.31;4993990;28;20038;-64
2022/04/10 10:20:32;;;;;;;6.13;3.03;;;;;;;6.17;60.88;99933.84;4994062;28;20360;-64
2022/04/10 10:23:03;;;;;;;9.47;2.87;;;;;;;6.22;60.58;99954.53;4995129;28;20046;-63
2022/04/10 10:25:33;;;;;;;5.40;2.60;;;;;;;6.05;60.95;99965.97;4994098;28;20034;-66
2022/04/10 10:28:36;;;;;;;5.67;2.53;;;;;;;5.81;61.31;99958.66;4976529;28;20038;-63
2022/04/10 10:31:26;;;;;;;5.33;2.03;;;;;;;5.69;62.18;99949.25;4976419;28;20042;-62
2022/04/10 10:33:56;;;;;;;7.97;2.77;;;;;;;5.66;62.72;99955.69;4976652;28;20269;-64
2022/04/10 10:36:26;;;;;;;6.40;3.43;;;;;;;5.88;62.48;99963.16;4976703;28;20823;-63
2022/04/10 10:38:53;;;;;;;8.73;2.50;;;;;;;6.00;62.79;99953.22;4976463;28;20720;-64
2022/04/10 10:41:18;;;;;;;4.53;2.53;;;;;;;6.25;61.49;99975.38;4993588;28;20265;-62
2022/04/10 10:43:44;;;;;;;6.43;2.97;;;;;;;6.27;61.25;99951.44;4993712;28;20053;-63
2022/04/10 10:50:26;;;;;;;5.97;3.20;;;;;;;6.63;61.41;99975.97;4857239;29;20057;-66
2022/04/10 10:53:42;;;;;;;8.57;3.23;;;;;;;6.53;61.63;99979.53;4842724;29;20805;-65
2022/04/10 10:56:22;;;;;;;6.33;3.00;;;;;;;6.38;61.92;99967.88;4891428;29;20049;-64
2022/04/10 10:58:48;;;;;;;10.70;3.33;;;;;;;6.27;62.79;99975.22;4951931;29;20043;-62
2022/04/10 11:01:35;;;;;;;6.80;2.73;;;;;;;6.21;63.24;99979.31;4937042;29;20158;-65
2022/04/10 11:04:04;;;;;;;5.95;3.05;;;;;;;6.08;63.85;99984.19;4964799;29;20137;-65
2022/04/10 11:06:45;;;;;;;8.87;2.60;;;;;;;6.08;63.14;99986.81;4953034;29;20106;-64
2022/04/10 11:09:21;;;;;;;6.23;3.50;;;;;;;6.37;63.41;99997.97;4937212;29;20063;-65
2022/04/10 11:11:48;;;;;;;8.67;2.80;;;;;;;6.64;62.26;99993.50;4952370;29;20031;-67
2022/04/10 11:14:38;;;;;;;13.03;3.93;;;;;;;6.83;60.86;99999.41;4936539;29;20043;-65
2022/04/10 11:17:34;;;;;;;4.67;2.40;;;;;;;6.77;61.23;99986.81;4952558;29;20039;-65
2022/04/10 11:20:12;;;;;;;12.27;3.57;;;;;;;6.65;61.72;99984.56;4967297;28;20387;-69
2022/04/10 11:22:55;;;;;;;7.47;2.65;;;;;;;6.68;62.08;100000.16;4975998;28;20049;-67
2022/04/10 11:25:27;;;;;;;19.13;4.17;;;;;;;6.55;61.07;99989.13;4993408;28;20046;-63
2022/04/10 11:27:55;;;;;;;3.60;2.43;;;;;;;6.30;61.39;100002.19;4993629;28;20129;-66
2022/04/10 11:30:31;;;;;;;11.70;3.13;;;;;;;6.38;61.65;100009.38;4993578;28;20129;-63
2022/04/10 11:32:57;;;;;;;18.10;4.33;;;;;;;6.44;62.28;100019.34;4993081;28;20513;-63
2022/04/10 11:35:32;;;;;;;7.07;2.83;;;;;;;6.42;62.32;100021.31;4992926;28;20046;-66
2022/04/10 11:38:01;;;;;;;7.93;2.93;;;;;;;6.68;61.35;100016.03;4994254;28;20034;-63
2022/04/10 11:40:30;;;;;;;12.57;2.93;;;;;;;6.89;61.05;100024.41;4993079;28;20052;-65
2022/04/10 11:42:57;;;;;;;9.27;2.72;;;;;;;7.03;60.42;100021.19;4993479;28;20042;-63
2022/04/10 11:45:25;;;;;;;8.53;2.27;;;;;;;7.07;59.76;100032.28;4993489;28;20049;-63
2022/04/10 11:47:50;;;;;;;7.83;2.73;;;;;;;7.16;59.92;100020.75;4992938;28;20133;-64
2022/04/10 11:50:18;;;;;;;6.17;2.47;;;;;;;7.37;59.46;100028.28;4975809;28;20080;-65
2022/04/10 11:53:07;;;;;;;18.95;4.10;;;;;;;7.39;59.58;100026.31;4994109;28;20038;-63
2022/04/10 11:55:38;;;;;;;11.40;2.80;;;;;;;7.29;60.28;100034.41;4993462;28;20034;-63
2022/04/10 11:58:18;;;;;;;12.83;3.10;;;;;;;7.19;60.77;100016.94;4992837;28;20536;-63
2022/04/10 12:01:05;;;;;;;9.73;2.90;;;;;;;6.97;60.35;100043.00;4993157;28;20058;-63
2022/04/10 12:03:39;;;;;;;12.53;2.63;;;;;;;6.99;60.84;100045.50;4976384;28;20050;-64
2022/04/10 12:06:09;;;;;;;4.90;2.17;;;;;;;7.06;59.92;100031.47;4993531;28;20030;-67
2022/04/10 12:08:34;;;;;;;3.60;2.20;;;;;;;7.24;59.71;100038.50;4993466;28;20042;-63
2022/04/10 12:11:01;;;;;;;4.07;1.90;;;;;;;7.13;59.19;100032.50;4975419;28;20031;-66
2022/04/10 12:13:29;;;;;;;4.20;2.13;;;;;;;6.93;60.13;100022.28;4993229;28;20378;-64
2022/04/10 12:16:08;;;;;;;9.30;2.47;;;;;;;6.86;60.01;100019.44;4996574;28;20060;-66